Time;durP1;ratioP1;P1;durP2;ratioP2;P2;SDS_P1;SDS_P2;PMS_P1;PMS_P2;Temp;Humidity;BMP_temperature;BMP_pressure;BME280_temperature;BME280_humidity;BME280_pressure;Samples;Min_cycle;Max_cycle;Signal;HPM_P1;HPM_P2
2022/01/06 00:00:08;;;;;;;20.73;2.80;;;;;;;4.97;74.11;101521.81;5012491;28;20088;-41
2022/01/06 00:02:33;;;;;;;32.30;3.73;;;;;;;4.97;73.83;101524.47;5012622;28;20057;-41
2022/01/06 00:04:59;;;;;;;31.50;3.58;;;;;;;4.99;73.55;101522.53;5012348;28;20179;-41
2022/01/06 00:07:24;;;;;;;33.35;3.03;;;;;;;5.02;74.32;101526.75;5012601;28;20025;-42
2022/01/06 00:09:50;;;;;;;33.72;3.50;;;;;;;4.96;74.63;101527.28;5012279;28;20544;-42
2022/01/06 00:12:18;;;;;;;26.83;3.10;;;;;;;5.00;74.31;101532.25;5011312;28;20025;-43
2022/01/06 00:17:47;;;;;;;22.27;3.10;;;;;;;5.04;72.97;101525.66;5023397;28;20091;-43
2022/01/06 00:23:22;;;;;;;23.85;2.78;;;;;;;5.05;74.07;101538.03;5012357;28;20504;-42
2022/01/06 00:25:48;;;;;;;26.05;3.55;;;;;;;5.01;75.33;101541.09;5012365;28;20037;-42
2022/01/06 00:28:14;;;;;;;26.38;2.72;;;;;;;4.92;75.75;101528.50;5011234;28;20084;-42
2022/01/06 00:30:39;;;;;;;31.83;2.85;;;;;;;4.91;75.79;101532.16;5011943;28;20061;-44
2022/01/06 00:33:04;;;;;;;31.17;2.72;;;;;;;4.88;75.78;101529.75;5011916;28;20061;-41
2022/01/06 00:35:30;;;;;;;26.95;3.47;;;;;;;4.91;75.64;101538.34;5012500;28;20026;-40
2022/01/06 00:37:55;;;;;;;30.30;2.28;;;;;;;4.95;75.06;101534.44;5011225;28;20328;-43
2022/01/06 00:40:21;;;;;;;26.67;3.17;;;;;;;4.92;75.20;101540.00;5012247;28;20117;-42
2022/01/06 00:42:46;;;;;;;27.40;2.58;;;;;;;4.91;75.50;101540.16;5011993;28;20068;-42
2022/01/06 00:45:11;;;;;;;22.67;2.40;;;;;;;4.86;76.04;101550.38;5012318;28;20030;-42
2022/01/06 00:47:37;;;;;;;35.97;3.00;;;;;;;4.93;75.10;101541.72;5012179;28;20496;-42
2022/01/06 00:50:03;;;;;;;31.38;3.85;;;;;;;4.92;75.47;101556.03;5012240;28;20036;-43
2022/01/06 00:52:28;;;;;;;14.27;2.03;;;;;;;5.01;73.66;101563.28;5005728;28;20042;-42
2022/01/06 00:54:54;;;;;;;14.80;1.85;;;;;;;5.03;72.80;101552.47;5011890;28;20030;-43
2022/01/06 00:57:19;;;;;;;10.75;1.58;;;;;;;4.98;72.88;101547.53;5011484;28;20034;-42
2022/01/06 00:59:44;;;;;;;21.02;1.75;;;;;;;4.96;71.69;101561.97;5010691;28;20144;-42
2022/01/06 01:02:09;;;;;;;15.13;1.75;;;;;;;4.96;72.57;101556.63;5014353;28;20042;-43
2022/01/06 01:04:35;;;;;;;17.25;2.40;;;;;;;4.91;73.11;101570.34;5015829;28;20037;-42
2022/01/06 01:07:00;;;;;;;17.30;2.95;;;;;;;4.85;75.40;101565.53;5015783;28;20025;-42
2022/01/06 01:09:26;;;;;;;23.60;3.15;;;;;;;4.83;75.16;101562.97;5015436;28;20041;-43
2022/01/06 01:11:51;;;;;;;27.92;2.55;;;;;;;4.84;75.30;101558.47;5004442;28;20109;-42
2022/01/06 01:14:29;;;;;;;27.85;2.10;;;;;;;4.81;76.46;101556.91;4996121;28;20022;-41
2022/01/06 01:16:59;;;;;;;;;;;;;;;4.87;76.12;101560.91;4996720;28;20030;-42
2022/01/06 01:19:25;;;;;;;26.20;2.33;;;;;;;4.86;75.23;101561.88;5001344;28;19917;-42
2022/01/06 01:21:52;;;;;;;22.80;3.03;;;;;;;4.80;75.47;101565.91;5015585;28;20045;-41
2022/01/06 01:24:17;;;;;;;23.20;2.47;;;;;;;4.75;75.84;101569.91;5015513;28;20168;-41
2022/01/06 01:26:43;;;;;;;23.05;2.30;;;;;;;4.69;76.20;101575.78;5015111;28;20030;-42
2022/01/06 01:29:19;;;;;;;32.08;2.65;;;;;;;4.63;76.02;101577.09;5013968;28;20398;-44
2022/01/06 01:31:52;;;;;;;25.42;3.25;;;;;;;4.59;75.78;101573.84;5015892;28;20037;-42
2022/01/06 01:34:26;;;;;;;25.63;2.92;;;;;;;4.72;75.27;101580.84;5014267;28;20165;-42
2022/01/06 01:36:55;;;;;;;32.20;3.17;;;;;;;4.77;73.52;101573.31;5014946;28;20030;-42
2022/01/06 01:39:20;;;;;;;;;;;;;;;4.81;73.78;101588.06;5015682;28;20569;-42
2022/01/06 01:41:45;;;;;;;25.40;2.97;;;;;;;4.82;73.19;101590.63;5014318;28;20000;-42
2022/01/06 01:44:16;;;;;;;16.17;2.58;;;;;;;4.76;73.89;101584.94;5014916;28;20032;-42
2022/01/06 01:46:45;;;;;;;27.83;3.40;;;;;;;4.74;74.43;101584.22;5015303;28;20034;-43
2022/01/06 01:49:44;;;;;;;30.25;3.22;;;;;;;4.72;74.81;101596.84;5015140;28;20030;-41
2022/01/06 01:52:00;;;;;;;30.10;2.45;;;;;;;4.71;75.38;101600.47;5014711;28;20060;-41
2022/01/06 01:54:26;;;;;;;26.52;2.15;;;;;;;4.69;76.05;101607.75;5014494;28;20474;-41
2022/01/06 01:56:51;;;;;;;22.63;2.42;;;;;;;4.70;75.54;101604.13;5014583;28;20394;-43
2022/01/06 01:59:17;;;;;;;38.85;3.92;;;;;;;4.71;75.83;101605.78;5014808;28;20036;-41
2022/01/06 02:01:42;;;;;;;20.88;2.75;;;;;;;4.74;75.35;101601.09;5014741;28;20506;-41
2022/01/06 02:04:08;;;;;;;20.65;2.45;;;;;;;4.74;75.21;101602.88;5013684;28;20061;-41
2022/01/06 02:06:33;;;;;;;16.77;2.47;;;;;;;4.70;75.81;101604.13;5014903;28;20025;-41
2022/01/06 02:08:59;;;;;;;24.83;2.08;;;;;;;4.74;76.20;101605.53;5013803;28;20022;-42
2022/01/06 02:11:24;;;;;;;25.98;2.75;;;;;;;4.67;76.93;101604.38;5014040;28;20034;-41
2022/01/06 02:13:52;;;;;;;45.95;3.70;;;;;;;4.63;76.88;101606.41;5014388;28;20022;-41
2022/01/06 02:16:26;;;;;;;29.63;2.22;;;;;;;4.66;76.49;101618.66;5014616;28;20026;-42
2022/01/06 02:18:53;;;;;;;21.33;2.40;;;;;;;4.65;76.23;101614.31;5014167;28;20042;-42
2022/01/06 02:21:19;;;;;;;27.52;2.50;;;;;;;4.68;75.70;101616.72;5010826;28;20521;-42
2022/01/06 02:23:44;;;;;;;27.17;2.90;;;;;;;4.70;75.47;101620.97;5010497;28;20068;-42
2022/01/06 02:26:10;;;;;;;25.63;2.42;;;;;;;4.70;74.99;101626.28;5014310;28;20061;-41
2022/01/06 02:28:36;;;;;;;23.58;2.70;;;;;;;4.61;75.71;101630.56;5014135;28;20041;-42
2022/01/06 02:31:01;;;;;;;29.92;2.45;;;;;;;4.59;75.64;101621.81;5014457;28;20072;-42
2022/01/06 02:33:27;;;;;;;37.03;3.10;;;;;;;4.57;76.02;101623.75;5013915;28;20091;-42
2022/01/06 02:35:54;;;;;;;28.98;2.88;;;;;;;4.50;77.15;101629.72;5014568;28;20490;-42
2022/01/06 02:38:20;;;;;;;22.58;2.78;;;;;;;4.46;76.52;101622.94;5014174;28;20160;-42
2022/01/06 02:40:45;;;;;;;30.90;2.65;;;;;;;4.45;77.07;101627.44;5014509;28;20044;-42
2022/01/06 02:43:14;;;;;;;25.83;2.78;;;;;;;4.45;76.33;101626.56;5014850;28;20030;-42
2022/01/06 02:45:39;;;;;;;31.48;2.10;;;;;;;4.48;76.52;101627.19;5013086;28;20029;-42
2022/01/06 02:48:08;;;;;;;28.10;2.65;;;;;;;4.52;76.99;101633.94;5015826;28;20026;-43
2022/01/06 02:50:37;;;;;;;23.40;2.88;;;;;;;4.57;77.51;101633.59;5014087;28;20038;-42
2022/01/06 02:53:03;;;;;;;33.45;3.47;;;;;;;4.54;77.22;101642.69;5013523;28;20030;-42
2022/01/06 02:55:28;;;;;;;24.45;2.72;;;;;;;4.56;78.27;101643.41;5014060;28;20026;-42
2022/01/06 02:57:53;;;;;;;31.85;2.90;;;;;;;4.57;76.90;101641.59;5012308;28;20028;-42
2022/01/06 03:00:19;;;;;;;24.95;2.00;;;;;;;4.58;76.77;101644.13;5013495;28;20030;-44
2022/01/06 03:02:46;;;;;;;20.45;2.10;;;;;;;4.63;76.02;101641.06;5013406;28;20034;-42
2022/01/06 03:05:12;;;;;;;20.17;2.58;;;;;;;4.67;75.98;101639.03;5013516;28;20508;-42
2022/01/06 03:07:38;;;;;;;13.10;2.80;;;;;;;4.68;76.79;101635.38;5013705;28;20041;-42
2022/01/06 03:10:07;;;;;;;33.22;3.03;;;;;;;4.68;76.34;101630.88;5013563;28;20432;-43
2022/01/06 03:12:39;;;;;;;22.38;2.20;;;;;;;4.67;75.92;101636.38;5003943;28;20451;-43
2022/01/06 03:15:08;;;;;;;27.77;2.67;;;;;;;4.65;75.68;101638.31;4993617;28;20042;-42
2022/01/06 03:17:38;;;;;;;21.23;2.22;;;;;;;4.62;75.34;101634.91;4995949;28;20027;-42
2022/01/06 03:20:05;;;;;;;15.57;2.33;;;;;;;4.64;75.61;101633.94;5013130;28;20057;-42
2022/01/06 03:22:30;;;;;;;15.70;2.00;;;;;;;4.59;75.75;101629.81;5018231;28;20032;-43
2022/01/06 03:24:55;;;;;;;23.77;2.65;;;;;;;4.54;76.62;101629.34;5024661;28;20477;-42
2022/01/06 03:27:21;;;;;;;22.90;2.10;;;;;;;4.52;77.12;101638.44;5021433;28;20022;-43
2022/01/06 03:29:49;;;;;;;25.00;2.55;;;;;;;4.60;76.20;101652.84;5012863;28;20026;-42
2022/01/06 03:32:15;;;;;;;31.35;2.75;;;;;;;4.79;75.75;101656.69;5013102;28;20026;-43
2022/01/06 03:34:40;;;;;;;17.20;1.60;;;;;;;4.91;75.66;101661.03;5012542;28;20064;-43
2022/01/06 03:37:06;;;;;;;14.75;1.85;;;;;;;4.89;76.16;101651.47;5012874;28;20080;-42
2022/01/06 03:39:31;;;;;;;17.83;1.98;;;;;;;4.96;76.07;101660.66;5012724;28;20033;-42
2022/01/06 03:41:57;;;;;;;10.38;1.20;;;;;;;4.94;76.32;101668.78;5012852;28;20033;-42
2022/01/06 03:44:22;;;;;;;9.55;1.30;;;;;;;4.91;76.03;101679.72;5012814;28;20111;-43
2022/01/06 03:46:47;;;;;;;10.30;1.35;;;;;;;4.87;76.22;101674.72;5013056;28;20025;-43
2022/01/06 03:49:13;;;;;;;15.52;1.42;;;;;;;4.88;76.68;101684.44;5007071;28;20455;-42
2022/01/06 03:51:38;;;;;;;17.05;1.98;;;;;;;4.98;78.54;101690.75;5012775;28;20477;-42
2022/01/06 03:54:03;;;;;;;13.68;1.73;;;;;;;4.89;80.63;101696.81;5011289;28;20433;-42
2022/01/06 03:56:29;;;;;;;14.05;1.33;;;;;;;4.69;82.08;101688.59;5012643;28;20048;-41
2022/01/06 03:58:54;;;;;;;16.52;1.13;;;;;;;4.49;84.50;101687.50;5012342;28;20045;-41
2022/01/06 04:01:20;;;;;;;18.35;1.35;;;;;;;4.26;84.00;101681.31;5012738;28;20056;-41
2022/01/06 04:03:47;;;;;;;14.13;1.33;;;;;;;4.21;84.08;101685.31;5012634;28;20049;-41
2022/01/06 04:06:13;;;;;;;18.08;2.40;;;;;;;4.13;83.38;101680.59;5012884;28;20029;-41
2022/01/06 04:08:38;;;;;;;11.60;1.30;;;;;;;4.11;83.50;101688.72;5010943;28;20022;-41
2022/01/06 04:11:04;;;;;;;10.02;0.90;;;;;;;4.08;83.83;101682.75;5012432;28;20319;-41
2022/01/06 04:13:29;;;;;;;6.90;1.42;;;;;;;4.06;83.01;101680.22;5012669;28;20397;-41
2022/01/06 04:15:56;;;;;;;10.27;1.38;;;;;;;4.03;83.53;101679.59;5012596;28;20076;-41
2022/01/06 04:18:21;;;;;;;10.43;1.30;;;;;;;3.95;84.82;101680.22;5012302;28;20453;-41
2022/01/06 04:20:46;;;;;;;10.68;1.40;;;;;;;3.89;84.50;101683.34;5012471;28;20054;-41
2022/01/06 04:23:12;;;;;;;20.30;2.78;;;;;;;3.84;84.67;101686.34;5012214;28;20032;-41
2022/01/06 04:25:37;;;;;;;12.13;0.77;;;;;;;3.82;84.44;101682.09;5012476;28;20496;-42
2022/01/06 04:28:03;;;;;;;13.43;1.10;;;;;;;3.76;83.54;101687.91;5012047;28;20397;-41
2022/01/06 04:30:28;;;;;;;7.47;1.08;;;;;;;3.72;85.05;101697.94;5012119;28;20044;-42
2022/01/06 04:32:53;;;;;;;14.95;1.55;;;;;;;3.66;84.70;101699.25;5012148;28;20030;-42
2022/01/06 04:35:19;;;;;;;8.32;0.88;;;;;;;3.67;83.68;101706.28;5012960;28;20452;-42
2022/01/06 04:37:44;;;;;;;13.10;1.35;;;;;;;3.66;84.24;101696.59;5014837;28;20505;-42
2022/01/06 04:40:10;;;;;;;13.68;2.08;;;;;;;3.65;83.91;101700.22;5016034;28;20483;-42
2022/01/06 04:42:35;;;;;;;13.02;1.10;;;;;;;3.66;84.14;101701.94;5015852;28;20033;-42
2022/01/06 04:45:00;;;;;;;11.70;1.50;;;;;;;3.76;83.22;101703.88;5016145;28;20026;-42
2022/01/06 04:47:26;;;;;;;18.23;1.63;;;;;;;3.83;83.63;101697.13;5015956;28;20497;-42
2022/01/06 04:49:51;;;;;;;16.75;1.83;;;;;;;3.84;83.54;101696.16;5014909;28;20029;-42
2022/01/06 04:52:17;;;;;;;14.90;1.92;;;;;;;3.89;83.80;101699.31;5014635;28;20065;-41
2022/01/06 04:54:42;;;;;;;9.77;1.10;;;;;;;3.83;83.20;101687.31;5015876;28;20037;-42
2022/01/06 04:57:08;;;;;;;13.40;2.08;;;;;;;3.89;82.55;101688.66;5015402;28;20084;-42
2022/01/06 04:59:33;;;;;;;12.23;1.10;;;;;;;3.77;83.51;101697.59;5016066;28;20041;-41
2022/01/06 05:01:58;;;;;;;20.50;1.58;;;;;;;3.64;84.78;101693.19;5015867;28;20030;-41
2022/01/06 05:04:24;;;;;;;10.60;1.63;;;;;;;3.57;85.83;101699.94;4997993;28;20079;-42
2022/01/06 05:06:51;;;;;;;11.95;1.15;;;;;;;3.50;85.55;101706.69;5015643;28;20130;-41
2022/01/06 05:09:16;;;;;;;13.90;1.50;;;;;;;3.50;85.62;101707.56;5016041;28;20033;-42
2022/01/06 05:11:42;;;;;;;12.25;2.00;;;;;;;3.40;87.18;101709.19;5015902;28;20019;-42
2022/01/06 05:14:07;;;;;;;9.57;1.27;;;;;;;3.36;87.00;101709.53;5015944;28;20038;-42
2022/01/06 05:16:32;;;;;;;11.30;1.65;;;;;;;3.28;86.98;101710.94;5015943;28;20037;-41
2022/01/06 05:18:58;;;;;;;13.32;1.40;;;;;;;3.24;87.46;101714.81;5015133;28;20053;-42
2022/01/06 05:21:23;;;;;;;10.32;1.30;;;;;;;3.17;88.30;101713.56;5014540;28;20030;-42
2022/01/06 05:23:49;;;;;;;21.83;2.25;;;;;;;3.13;89.05;101722.69;5015165;28;20525;-42
2022/01/06 05:26:15;;;;;;;11.70;1.35;;;;;;;3.08;88.86;101714.22;5014936;28;20385;-42
2022/01/06 05:28:40;;;;;;;6.35;1.45;;;;;;;3.05;88.88;101711.78;5014315;28;20026;-42
2022/01/06 05:31:06;;;;;;;19.60;1.70;;;;;;;3.03;89.44;101717.22;5015342;28;20128;-42
2022/01/06 05:33:31;;;;;;;12.30;1.45;;;;;;;2.96;89.06;101713.31;5014808;28;20114;-42
2022/01/06 05:35:56;;;;;;;13.18;1.30;;;;;;;2.90;89.70;101716.41;5014868;28;20115;-42
2022/01/06 05:38:22;;;;;;;12.00;1.40;;;;;;;2.90;89.73;101715.53;5014827;28;20021;-43
2022/01/06 05:40:47;;;;;;;12.18;1.48;;;;;;;2.85;89.24;101715.91;5014383;28;20022;-42
2022/01/06 05:43:12;;;;;;;12.23;1.52;;;;;;;2.82;88.82;101714.31;5013895;28;20117;-42
2022/01/06 05:45:38;;;;;;;14.45;1.90;;;;;;;2.82;88.63;101711.66;5015256;28;20038;-42
2022/01/06 05:48:03;;;;;;;21.98;1.90;;;;;;;2.82;89.02;101719.63;5013551;28;20029;-42
2022/01/06 05:50:29;;;;;;;13.45;2.00;;;;;;;2.80;89.16;101710.91;5010293;28;20103;-42
2022/01/06 05:52:54;;;;;;;22.92;2.05;;;;;;;2.79;89.34;101729.59;5015419;28;20026;-42
2022/01/06 05:55:23;;;;;;;15.68;1.63;;;;;;;2.76;89.04;101730.69;5014390;28;20112;-43
2022/01/06 05:57:50;;;;;;;12.05;1.45;;;;;;;2.75;88.87;101729.00;5015428;28;20478;-42
2022/01/06 06:00:15;;;;;;;15.23;1.30;;;;;;;2.76;89.17;101736.00;5014718;28;20481;-42
2022/01/06 06:02:41;;;;;;;22.00;1.90;;;;;;;2.76;90.02;101736.00;5014165;28;20076;-42
2022/01/06 06:05:06;;;;;;;18.42;1.63;;;;;;;2.76;90.30;101741.31;5009294;28;20033;-41
2022/01/06 06:07:31;;;;;;;18.67;1.85;;;;;;;2.75;89.89;101739.63;5007386;28;20030;-43
2022/01/06 06:09:57;;;;;;;21.63;2.28;;;;;;;2.72;90.46;101737.19;5011409;28;20029;-42
2022/01/06 06:12:22;;;;;;;29.55;2.90;;;;;;;2.72;90.88;101739.84;5010295;28;20137;-42
2022/01/06 06:14:48;;;;;;;15.73;2.35;;;;;;;2.72;90.80;101744.31;5010884;28;20120;-42
2022/01/06 06:17:14;;;;;;;18.10;2.03;;;;;;;2.69;91.00;101745.38;5010181;28;20026;-41
2022/01/06 06:19:39;;;;;;;31.50;2.30;;;;;;;2.65;91.13;101749.19;5011258;28;20054;-42
2022/01/06 06:22:05;;;;;;;8.40;1.60;;;;;;;2.60;91.62;101751.34;5011225;28;20030;-42
2022/01/06 06:24:30;;;;;;;15.88;1.90;;;;;;;2.52;91.20;101751.88;5016974;28;20041;-42
2022/01/06 06:26:56;;;;;;;11.10;1.35;;;;;;;2.48;91.56;101757.53;5029426;28;20037;-42
2022/01/06 06:29:21;;;;;;;12.27;1.85;;;;;;;2.41;92.28;101771.22;5005774;28;20046;-42
2022/01/06 06:31:46;;;;;;;14.82;2.17;;;;;;;2.42;91.96;101775.59;4992078;28;20033;-42
2022/01/06 06:34:12;;;;;;;21.35;2.22;;;;;;;2.42;92.25;101772.94;5002828;28;20371;-42
2022/01/06 06:36:38;;;;;;;20.38;1.98;;;;;;;2.42;92.45;101780.03;5009808;28;20608;-42
2022/01/06 06:39:04;;;;;;;10.63;2.00;;;;;;;2.37;92.42;101777.72;5015923;28;20107;-44
2022/01/06 06:41:29;;;;;;;12.13;2.05;;;;;;;2.36;92.12;101780.47;5030815;28;20052;-42
2022/01/06 06:43:54;;;;;;;17.20;1.88;;;;;;;2.34;92.29;101783.25;5030872;28;20035;-42
2022/01/06 06:46:20;;;;;;;16.40;2.28;;;;;;;2.34;91.89;101790.34;5019916;28;20072;-41
2022/01/06 06:48:45;;;;;;;16.45;2.72;;;;;;;2.33;92.23;101796.63;5010893;28;20478;-41
2022/01/06 06:51:11;;;;;;;25.25;4.55;;;;;;;2.34;93.43;101793.00;5010790;28;20109;-42
2022/01/06 06:53:36;;;;;;;24.15;2.40;;;;;;;2.35;93.18;101790.25;5011071;28;20133;-42
2022/01/06 06:56:02;;;;;;;18.67;2.70;;;;;;;2.40;94.14;101792.59;5010977;28;20067;-43
2022/01/06 06:58:27;;;;;;;17.48;3.22;;;;;;;2.37;93.18;101783.03;5009818;28;20145;-41
2022/01/06 07:00:53;;;;;;;20.52;3.30;;;;;;;2.38;93.03;101784.72;5007808;28;20048;-41
2022/01/06 07:03:18;;;;;;;22.02;3.10;;;;;;;2.38;92.93;101786.53;5000706;28;20054;-41
2022/01/06 07:05:43;;;;;;;21.40;2.55;;;;;;;2.38;93.67;101795.34;5002409;28;20110;-42
2022/01/06 07:08:09;;;;;;;15.27;3.15;;;;;;;2.38;93.03;101790.03;5010486;28;20026;-41
2022/01/06 07:10:34;;;;;;;17.33;2.50;;;;;;;2.40;93.35;101798.75;5010258;28;20022;-41
2022/01/06 07:12:59;;;;;;;19.92;2.90;;;;;;;2.41;93.42;101789.81;5009386;28;20040;-42
2022/01/06 07:15:27;;;;;;;20.80;3.35;;;;;;;2.49;93.81;101791.09;4990836;28;20022;-42
2022/01/06 07:17:52;;;;;;;21.15;3.40;;;;;;;2.51;93.84;101792.69;5001826;28;20030;-41
2022/01/06 07:20:17;;;;;;;17.67;2.92;;;;;;;2.59;94.09;101797.47;5010412;28;20087;-41
2022/01/06 07:22:43;;;;;;;20.00;2.58;;;;;;;2.67;93.89;101800.44;5010425;28;20445;-42
2022/01/06 07:25:09;;;;;;;24.33;2.75;;;;;;;2.75;93.45;101790.13;5010416;28;20486;-41
2022/01/06 07:27:34;;;;;;;20.17;2.97;;;;;;;2.82;94.04;101798.53;5028956;28;20040;-41
2022/01/06 07:29:59;;;;;;;18.80;3.08;;;;;;;2.91;93.28;101797.03;5029574;28;20520;-41
2022/01/06 07:32:25;;;;;;;13.82;2.63;;;;;;;2.95;93.16;101794.06;5030175;28;20025;-42
2022/01/06 07:34:51;;;;;;;29.58;4.80;;;;;;;3.03;92.39;101796.16;5008378;28;20494;-41
2022/01/06 07:37:16;;;;;;;21.63;3.47;;;;;;;3.09;92.20;101798.38;5005526;28;20044;-41
2022/01/06 07:39:41;;;;;;;17.42;3.45;;;;;;;3.12;91.87;101803.47;5009770;28;20017;-41
2022/01/06 07:42:07;;;;;;;22.77;3.10;;;;;;;3.15;92.37;101803.25;5008220;28;20026;-42
2022/01/06 07:44:32;;;;;;;21.33;2.97;;;;;;;3.14;91.96;101804.22;4993265;28;20027;-43
2022/01/06 07:46:59;;;;;;;16.25;3.15;;;;;;;3.13;92.28;101807.81;4993604;28;20034;-42
2022/01/06 07:49:24;;;;;;;15.05;2.67;;;;;;;3.08;91.45;101801.97;4993598;28;20085;-41
2022/01/06 07:51:50;;;;;;;22.15;3.00;;;;;;;3.05;90.97;101805.72;4991978;28;20133;-41
2022/01/06 07:54:15;;;;;;;20.20;2.78;;;;;;;3.00;91.48;101799.91;4991818;28;20035;-42
2022/01/06 07:56:40;;;;;;;19.83;2.70;;;;;;;3.01;91.57;101809.56;4994841;28;20033;-42
2022/01/06 07:59:08;;;;;;;18.15;3.30;;;;;;;3.01;91.77;101811.38;4993166;28;20053;-42
2022/01/06 08:01:33;;;;;;;21.63;3.37;;;;;;;2.95;91.55;101825.97;5007824;28;20027;-41
2022/01/06 08:03:58;;;;;;;14.70;2.97;;;;;;;3.01;91.23;101824.66;4992874;28;20129;-41
2022/01/06 08:06:24;;;;;;;15.23;2.35;;;;;;;3.17;91.58;101827.09;5000294;28;20453;-42
2022/01/06 08:08:49;;;;;;;21.65;3.03;;;;;;;3.16;90.96;101842.22;5010794;28;20026;-42
2022/01/06 08:11:15;;;;;;;15.60;3.10;;;;;;;3.18;91.22;101837.59;5010235;28;20032;-41
2022/01/06 08:13:40;;;;;;;36.35;3.90;;;;;;;3.25;91.53;101836.22;5012596;28;20069;-42
2022/01/06 08:16:06;;;;;;;23.83;3.05;;;;;;;3.35;91.55;101833.75;5000195;28;20037;-41
2022/01/06 08:18:31;;;;;;;16.35;3.47;;;;;;;3.46;91.24;101835.63;4998183;28;20101;-42
2022/01/06 08:20:58;;;;;;;18.13;2.95;;;;;;;3.51;91.09;101841.47;5007718;28;20129;-42
2022/01/06 08:23:24;;;;;;;20.35;3.40;;;;;;;3.60;90.89;101839.94;5011382;28;20436;-42
2022/01/06 08:25:49;;;;;;;19.40;3.20;;;;;;;3.66;90.05;101845.69;5004572;28;20057;-41
2022/01/06 08:28:14;;;;;;;24.08;3.20;;;;;;;3.77;90.07;101849.38;4991545;28;20032;-42
2022/01/06 08:30:40;;;;;;;22.63;2.85;;;;;;;3.97;90.28;101840.72;5001949;28;20029;-42
2022/01/06 08:33:05;;;;;;;26.17;3.65;;;;;;;4.32;90.37;101847.91;4998360;28;20023;-42
2022/01/06 08:35:31;;;;;;;16.38;3.30;;;;;;;4.53;88.22;101845.38;4991561;28;20037;-42
2022/01/06 08:38:24;;;;;;;30.88;3.50;;;;;;;4.59;86.27;101847.59;5089356;27;20388;-41
2022/01/06 08:40:49;;;;;;;21.23;2.83;;;;;;;4.57;86.00;101853.03;5085694;28;20033;-41
2022/01/06 08:43:14;;;;;;;20.48;2.70;;;;;;;4.57;86.52;101847.72;5074492;28;20073;-41
2022/01/06 08:45:40;;;;;;;19.20;2.83;;;;;;;4.58;86.28;101846.75;5087324;28;20024;-41
2022/01/06 08:48:05;;;;;;;17.15;3.03;;;;;;;4.75;86.55;101847.25;5086279;28;20035;-42
2022/01/06 08:50:30;;;;;;;17.38;3.08;;;;;;;4.95;85.09;101854.56;5084705;28;20040;-42
2022/01/06 08:52:56;;;;;;;17.67;3.13;;;;;;;5.36;84.04;101847.75;5085772;28;20032;-42
2022/01/06 08:55:22;;;;;;;16.35;2.92;;;;;;;5.44;81.70;101845.28;5086976;28;20032;-41
2022/01/06 08:57:47;;;;;;;25.70;3.88;;;;;;;5.41;80.84;101850.88;5087488;28;20031;-41
2022/01/06 09:00:13;;;;;;;16.73;3.38;;;;;;;5.30;81.15;101853.59;5088013;28;20196;-42
2022/01/06 09:02:39;;;;;;;32.55;3.80;;;;;;;5.48;80.00;101864.59;5088385;28;20059;-42
2022/01/06 09:05:06;;;;;;;14.48;3.15;;;;;;;5.99;78.54;101866.69;5095014;28;20515;-42
2022/01/06 09:07:34;;;;;;;20.38;3.03;;;;;;;6.17;77.08;101858.97;5089365;28;20070;-42
2022/01/06 09:10:00;;;;;;;24.38;4.00;;;;;;;6.36;77.23;101858.25;5085529;28;20025;-42
2022/01/06 09:12:26;;;;;;;20.85;3.20;;;;;;;6.21;77.49;101864.91;5053466;28;20033;-41
2022/01/06 09:14:51;;;;;;;23.67;3.65;;;;;;;6.25;75.74;101859.16;5069572;28;20469;-41
2022/01/06 09:17:17;;;;;;;17.20;4.68;;;;;;;6.30;76.27;101862.31;5062837;28;20040;-42
2022/01/06 09:19:43;;;;;;;25.77;3.92;;;;;;;6.29;76.54;101857.94;5065562;28;20044;-42
2022/01/06 09:22:08;;;;;;;20.80;3.60;;;;;;;6.17;78.24;101858.97;5070037;28;20024;-42
2022/01/06 09:24:34;;;;;;;18.83;3.85;;;;;;;6.13;78.42;101854.84;5056722;28;20091;-42
2022/01/06 09:26:59;;;;;;;15.40;3.10;;;;;;;6.06;79.74;101859.03;5049150;28;20029;-42
2022/01/06 09:29:25;;;;;;;20.25;3.22;;;;;;;6.44;79.41;101860.28;5049616;28;20083;-42
2022/01/06 09:31:50;;;;;;;20.85;3.30;;;;;;;7.10;77.16;101863.47;5061198;28;20036;-42
2022/01/06 09:34:15;;;;;;;21.95;3.40;;;;;;;7.80;73.69;101868.94;5058431;28;20029;-42
2022/01/06 09:36:42;;;;;;;26.67;3.83;;;;;;;8.12;70.96;101865.97;5059696;28;20060;-42
2022/01/06 09:39:10;;;;;;;16.35;3.13;;;;;;;8.07;70.30;101865.56;5059418;28;20055;-42
2022/01/06 09:41:35;;;;;;;;;;;;;;;8.42;67.83;101873.06;5060293;28;20135;-42
2022/01/06 09:44:01;;;;;;;15.20;2.90;;;;;;;8.29;68.45;101877.81;5070786;28;20482;-42
2022/01/06 09:46:29;;;;;;;19.98;3.03;;;;;;;8.28;67.70;101877.00;5069512;28;20462;-43
2022/01/06 09:48:57;;;;;;;26.00;3.10;;;;;;;7.43;71.31;101874.91;5059901;28;20037;-42
2022/01/06 09:51:23;;;;;;;36.13;3.33;;;;;;;7.05;74.05;101879.09;5056004;28;20033;-42
2022/01/06 09:53:50;;;;;;;19.05;2.92;;;;;;;6.85;74.52;101877.31;5055607;28;20029;-41
2022/01/06 09:56:15;;;;;;;23.23;3.80;;;;;;;6.73;76.62;101880.03;5048448;28;20162;-41
2022/01/06 09:58:40;;;;;;;14.95;2.53;;;;;;;6.42;77.74;101879.13;5047362;28;20033;-41
2022/01/06 10:01:06;;;;;;;18.30;2.08;;;;;;;6.31;78.28;101882.69;5038806;28;20037;-40
2022/01/06 10:03:36;;;;;;;19.38;2.85;;;;;;;6.33;79.18;101885.25;5042419;28;20472;-42
2022/01/06 10:06:11;;;;;;;15.18;2.60;;;;;;;6.24;78.16;101876.19;5040214;28;20052;-42
2022/01/06 10:08:37;;;;;;;11.45;2.00;;;;;;;6.28;79.02;101882.97;5041222;28;20033;-42
2022/01/06 10:11:09;;;;;;;12.07;2.00;;;;;;;6.27;78.94;101878.59;5042275;28;20079;-41
2022/01/06 10:13:34;;;;;;;18.23;2.40;;;;;;;6.27;78.01;101870.59;5042097;28;20057;-41
2022/01/06 10:16:11;;;;;;;15.85;2.97;;;;;;;6.35;77.98;101878.81;5042807;28;20049;-42
2022/01/06 10:18:36;;;;;;;10.88;2.20;;;;;;;6.30;77.86;101880.19;5041679;28;20025;-43
2022/01/06 10:21:11;;;;;;;14.13;2.67;;;;;;;6.20;77.05;101874.75;5041179;28;20028;-41
2022/01/06 10:23:36;;;;;;;21.98;3.22;;;;;;;6.02;77.28;101870.94;5042216;28;20123;-42
2022/01/06 10:26:11;;;;;;;15.13;2.72;;;;;;;5.87;77.47;101884.56;5041821;28;20479;-42
2022/01/06 10:28:38;;;;;;;15.70;3.17;;;;;;;5.80;77.47;101875.34;5040647;28;20025;-43
2022/01/06 10:31:06;;;;;;;14.10;2.67;;;;;;;5.74;77.03;101873.19;5041131;28;20021;-43
2022/01/06 10:33:36;;;;;;;17.90;2.50;;;;;;;5.78;77.65;101869.25;5043665;28;20119;-42
2022/01/06 10:36:06;;;;;;;16.85;3.08;;;;;;;5.72;76.89;101869.78;5053127;28;20037;-40
2022/01/06 10:38:31;;;;;;;9.00;2.45;;;;;;;5.79;77.01;101873.63;5050469;28;20033;-42
2022/01/06 10:41:15;;;;;;;11.80;1.98;;;;;;;5.85;77.04;101865.13;5050413;28;20044;-41
2022/01/06 10:43:41;;;;;;;14.27;2.53;;;;;;;5.94;77.48;101869.72;5047419;28;20033;-42
2022/01/06 10:46:08;;;;;;;10.80;1.60;;;;;;;5.95;76.10;101873.28;5052023;28;20095;-42
2022/01/06 10:48:34;;;;;;;10.85;1.92;;;;;;;5.98;76.68;101870.34;5041467;28;20068;-41
2022/01/06 10:51:01;;;;;;;9.65;1.60;;;;;;;5.86;76.80;101868.63;5049141;28;20659;-42
2022/01/06 10:53:27;;;;;;;10.23;1.40;;;;;;;5.79;76.85;101862.09;5043372;28;20053;-41
2022/01/06 10:55:53;;;;;;;8.10;1.50;;;;;;;5.88;77.94;101864.88;5053620;28;20110;-42
2022/01/06 10:58:25;;;;;;;13.55;1.65;;;;;;;5.74;77.09;101862.50;5040087;28;20034;-41
2022/01/06 11:01:00;;;;;;;13.13;1.90;;;;;;;5.71;77.67;101871.59;5044529;28;20116;-43
2022/01/06 11:03:32;;;;;;;11.50;2.05;;;;;;;5.70;78.24;101871.72;5034522;28;20052;-42
2022/01/06 11:05:59;;;;;;;9.88;1.50;;;;;;;5.50;76.91;101871.53;5052775;28;20047;-42
2022/01/06 11:08:29;;;;;;;9.27;1.60;;;;;;;5.43;77.01;101858.78;5053977;28;20031;-42
2022/01/06 11:13:38;;;;;;;3.47;1.40;;;;;;;5.36;78.17;101857.56;5034323;28;20091;-42
2022/01/06 11:16:04;;;;;;;7.07;1.73;;;;;;;5.37;78.35;101860.13;5037086;28;20148;-42
2022/01/06 11:18:30;;;;;;;8.18;2.17;;;;;;;5.34;78.54;101854.16;5035779;28;20091;-42
2022/01/06 11:21:03;;;;;;;8.70;1.63;;;;;;;5.35;77.50;101856.72;5048517;28;20021;-42
2022/01/06 11:23:31;;;;;;;14.82;1.55;;;;;;;5.35;77.68;101861.22;5052362;28;20037;-42
2022/01/06 11:26:13;;;;;;;16.65;2.33;;;;;;;5.44;78.60;101855.97;5055752;28;20025;-43
2022/01/06 11:28:42;;;;;;;7.10;1.83;;;;;;;5.43;77.79;101858.78;5042817;28;20013;-42
2022/01/06 11:31:19;;;;;;;16.75;2.08;;;;;;;5.32;76.93;101859.66;5063354;28;20044;-42